Saturday, February 24, 2018, 3:17 AM EST

KOKV, Winchester Regional

Location: Winchester, VA, United States Lat: 39.15
Local Time: 3:17 AM EST ( 8:17 GMT) Lon: -78.15
Time Zone: US/Eastern Elev: 728 ft

Show me the last for .
Show Decoded

2018-02-24 02:35 METAR KOKV 240735Z AUTO 00000KT 3/4SM BR OVC003 05/04 A3019 RMK AO2 =
2018-02-24 02:15 METAR KOKV 240715Z AUTO 00000KT 1/4SM FG OVC003 04/04 A3020 RMK AO2 =
2018-02-24 01:55 METAR KOKV 240655Z AUTO 00000KT 1/4SM FG OVC003 04/04 A3020 RMK AO2 =
2018-02-24 01:35 METAR KOKV 240635Z AUTO 15004KT 1/4SM FG OVC003 05/05 A3021 RMK AO2 =
2018-02-24 01:15 METAR KOKV 240615Z AUTO 00000KT 1/4SM FG OVC003 05/05 A3022 RMK AO2 =
2018-02-24 00:55 METAR KOKV 240555Z AUTO 00000KT 1/4SM FG OVC003 05/05 A3023 RMK AO2 =
2018-02-24 00:35 METAR KOKV 240535Z AUTO 00000KT 1/2SM FG OVC003 05/05 A3023 RMK AO2 =
2018-02-24 00:15 METAR KOKV 240515Z AUTO 00000KT 1/2SM FG OVC003 05/05 A3024 RMK AO2 =
2018-02-23 23:55 METAR KOKV 240455Z AUTO 00000KT 1SM BR OVC003 05/05 A3024 RMK AO2 =
2018-02-23 23:35 METAR KOKV 240435Z AUTO 00000KT 1 1/2SM BR OVC003 05/05 A3024 RMK AO2 =
2018-02-23 23:15 METAR KOKV 240415Z AUTO 00000KT 4SM BR OVC003 05/05 A3024 RMK AO2 =
2018-02-23 22:55 METAR KOKV 240355Z AUTO 00000KT 4SM BR BKN005 03/03 A3025 RMK AO2 =
2018-02-23 22:35 METAR KOKV 240335Z AUTO 00000KT 1 3/4SM BR VV007 03/03 A3026 RMK AO2 VIS 1V3 =
2018-02-23 22:15 METAR KOKV 240315Z AUTO 00000KT 5SM BR CLR 04/04 A3027 RMK AO2 =
2018-02-23 21:55 METAR KOKV 240255Z AUTO 00000KT 7SM CLR 04/03 A3027 RMK AO2 =
2018-02-23 21:35 METAR KOKV 240235Z AUTO 00000KT 7SM CLR 03/03 A3028 RMK AO2 =
2018-02-23 21:15 METAR KOKV 240215Z AUTO 00000KT 7SM CLR 03/03 A3027 RMK AO2 =
2018-02-23 20:55 METAR KOKV 240155Z AUTO 00000KT 7SM CLR 04/03 A3028 RMK AO2 =
2018-02-23 20:35 METAR KOKV 240135Z AUTO 00000KT 10SM CLR 03/03 A3028 RMK AO2 =
2018-02-23 20:15 METAR KOKV 240115Z AUTO 00000KT 10SM CLR 05/04 A3028 RMK AO2 =
2018-02-23 19:55 METAR KOKV 240055Z AUTO 00000KT 10SM CLR 05/05 A3028 RMK AO2 =
2018-02-23 19:35 METAR KOKV 240035Z AUTO 00000KT 10SM SCT014 06/05 A3028 RMK AO2 =
2018-02-23 19:15 METAR KOKV 240015Z AUTO 00000KT 10SM OVC014 06/05 A3030 RMK AO2 =
2018-02-23 18:55 METAR KOKV 232355Z AUTO 00000KT 10SM OVC014 06/05 A3030 RMK AO2 =
2018-02-23 18:35 METAR KOKV 232335Z AUTO 00000KT 10SM OVC014 06/05 A3029 RMK AO2 =
2018-02-23 18:15 METAR KOKV 232315Z AUTO 00000KT 10SM BKN014 06/05 A3030 RMK AO2 =
2018-02-23 17:55 METAR KOKV 232255Z AUTO 12003KT 10SM BKN014 07/05 A3030 RMK AO2 =
2018-02-23 17:35 METAR KOKV 232235Z AUTO 13005KT 10SM OVC014 07/05 A3031 RMK AO2 =
2018-02-23 17:15 METAR KOKV 232215Z AUTO 09005KT 10SM OVC014 07/05 A3030 RMK AO2 =
2018-02-23 16:55 METAR KOKV 232155Z AUTO 09003KT 10SM OVC014 07/05 A3032 RMK AO2 =
2018-02-23 16:35 METAR KOKV 232135Z AUTO 08004KT 10SM OVC014 07/05 A3032 RMK AO2 =
2018-02-23 16:15 METAR KOKV 232115Z AUTO 08004KT 10SM OVC014 08/05 A3032 RMK AO2 =
2018-02-23 15:55 METAR KOKV 232055Z AUTO 00000KT 10SM OVC014 08/05 A3033 RMK AO2 =
2018-02-23 15:35 METAR KOKV 232035Z AUTO 00000KT 10SM OVC012 07/05 A3034 RMK AO2 =
2018-02-23 15:15 METAR KOKV 232015Z AUTO 18004KT 10SM OVC012 07/05 A3034 RMK AO2 =
2018-02-23 14:55 METAR KOKV 231955Z AUTO 17004KT 10SM OVC012 07/05 A3035 RMK AO2 =
2018-02-23 14:35 METAR KOKV 231935Z AUTO 18006KT 10SM OVC012 07/05 A3035 RMK AO2 =
2018-02-23 14:15 METAR KOKV 231915Z AUTO 17008KT 10SM OVC012 07/05 A3036 RMK AO2 =
2018-02-23 13:55 METAR KOKV 231855Z AUTO 18008KT 10SM OVC012 07/05 A3037 RMK AO2 =
2018-02-23 13:35 METAR KOKV 231835Z AUTO 17006KT 10SM OVC012 07/04 A3039 RMK AO2 =
2018-02-23 13:15 METAR KOKV 231815Z AUTO 15008KT 10SM OVC012 07/04 A3040 RMK AO2 =
2018-02-23 12:55 METAR KOKV 231755Z AUTO 16006KT 10SM OVC012 06/04 A3042 RMK AO2 =
2018-02-23 12:35 METAR KOKV 231735Z AUTO 16008KT 10SM OVC010 06/04 A3042 RMK AO2 =
2018-02-23 12:15 METAR KOKV 231715Z AUTO 13007KT 10SM OVC010 06/04 A3045 RMK AO2 =
2018-02-23 11:55 METAR KOKV 231655Z AUTO 13005KT 10SM OVC008 05/03 A3048 RMK AO2 =
2018-02-23 11:35 METAR KOKV 231635Z AUTO 10006KT 10SM OVC008 05/04 A3049 RMK AO2 =
2018-02-23 11:15 METAR KOKV 231615Z AUTO 12006KT 10SM OVC008 05/03 A3050 RMK AO2 =
2018-02-23 10:55 METAR KOKV 231555Z AUTO 12006KT 10SM OVC008 05/03 A3050 RMK AO2 =
2018-02-23 10:35 METAR KOKV 231535Z AUTO 11006KT 10SM OVC008 04/03 A3051 RMK AO2 =
2018-02-23 10:15 METAR KOKV 231515Z AUTO 13007KT 10SM OVC008 04/03 A3052 RMK AO2 =
2018-02-23 09:55 METAR KOKV 231455Z AUTO 13009KT 10SM OVC008 04/03 A3052 RMK AO2 =
2018-02-23 09:35 METAR KOKV 231435Z AUTO 13008KT 10SM OVC008 03/03 A3053 RMK AO2 =
2018-02-23 09:15 METAR KOKV 231415Z AUTO 12006KT 10SM OVC008 03/03 A3054 RMK AO2 =
2018-02-23 08:55 METAR KOKV 231355Z AUTO 11007KT 10SM OVC006 03/03 A3055 RMK AO2 =
2018-02-23 08:35 METAR KOKV 231335Z AUTO 12005KT 10SM OVC006 03/02 A3055 RMK AO2 =
2018-02-23 08:15 METAR KOKV 231315Z AUTO 12004KT 10SM OVC006 03/03 A3055 RMK AO2 =
2018-02-23 07:55 METAR KOKV 231255Z AUTO 11006KT 10SM OVC006 03/02 A3055 RMK AO2 =
2018-02-23 07:35 METAR KOKV 231235Z AUTO 09005KT 10SM OVC006 03/02 A3055 RMK AO2 =
2018-02-23 07:15 METAR KOKV 231215Z AUTO 10004KT 10SM OVC006 03/02 A3055 RMK AO2 =
2018-02-23 06:55 METAR KOKV 231155Z AUTO 11003KT 10SM BKN006 OVC009 03/02 A3055 RMK AO2 =
2018-02-23 06:35 METAR KOKV 231135Z AUTO 12004KT 10SM OVC009 03/02 A3055 RMK AO2 =
2018-02-23 06:15 METAR KOKV 231115Z AUTO 12003KT 10SM OVC009 03/02 A3056 RMK AO2 =
2018-02-23 05:55 METAR KOKV 231055Z AUTO 12005KT 7SM BKN006 OVC011 03/03 A3055 RMK AO2 =
2018-02-23 05:35 METAR KOKV 231035Z AUTO 12003KT 2 1/2SM BR BKN004 OVC008 03/03 A3055 RMK AO2 =
2018-02-23 05:15 METAR KOKV 231015Z AUTO 10003KT 3SM BR BKN004 OVC010 03/03 A3055 RMK AO2 =
2018-02-23 04:55 METAR KOKV 230955Z AUTO 10003KT 4SM BR BKN004 OVC012 03/03 A3055 RMK AO2 =
2018-02-23 04:35 METAR KOKV 230935Z AUTO 12004KT 3SM BR BKN004 BKN008 OVC014 03/03 A3055 RMK AO2
                 =
2018-02-23 04:15 METAR KOKV 230915Z AUTO 12004KT 2 1/2SM BR OVC004 03/03 A3055 RMK AO2 =
2018-02-23 03:55 METAR KOKV 230855Z AUTO 11004KT 2SM -RA OVC004 03/03 A3056 RMK AO2 =
2018-02-23 03:35 METAR KOKV 230835Z AUTO 09005KT 1 3/4SM BR OVC004 03/03 A3056 RMK AO2 =

Support USWX by starting your Amazon purchase here.